sensor_id;sensor_type;location;lat;lon;timestamp;pressure;altitude;pressure_sealevel;temperature;humidity
84024;BME280;74109;45.636;25.582;2024-03-06T00:00:23;94365.14;;;3.98;65.49
84024;BME280;74109;45.636;25.582;2024-03-06T00:03:10;94366.21;;;3.98;65.29
84024;BME280;74109;45.636;25.582;2024-03-06T00:05:37;94366.44;;;3.99;65.07
84024;BME280;74109;45.636;25.582;2024-03-06T00:08:04;94365.03;;;4.01;65.29
84024;BME280;74109;45.636;25.582;2024-03-06T00:10:31;94364.52;;;4.03;65.45
84024;BME280;74109;45.636;25.582;2024-03-06T00:12:58;94363.85;;;4.07;65.71
84024;BME280;74109;45.636;25.582;2024-03-06T00:15:25;94363.29;;;4.07;65.68
84024;BME280;74109;45.636;25.582;2024-03-06T00:17:51;94365.02;;;4.08;65.61
84024;BME280;74109;45.636;25.582;2024-03-06T00:20:18;94364.08;;;4.04;66.11
84024;BME280;74109;45.636;25.582;2024-03-06T00:22:45;94365.86;;;4.00;66.27
84024;BME280;74109;45.636;25.582;2024-03-06T00:25:12;94362.73;;;3.98;65.47
84024;BME280;74109;45.636;25.582;2024-03-06T00:27:39;94366.23;;;3.98;65.50
84024;BME280;74109;45.636;25.582;2024-03-06T00:30:06;94362.29;;;3.99;65.07
84024;BME280;74109;45.636;25.582;2024-03-06T00:32:33;94358.36;;;4.00;65.00
84024;BME280;74109;45.636;25.582;2024-03-06T00:35:00;94361.80;;;4.00;65.08
84024;BME280;74109;45.636;25.582;2024-03-06T00:37:27;94362.85;;;3.99;65.19
84024;BME280;74109;45.636;25.582;2024-03-06T00:39:54;94363.39;;;3.96;65.18
84024;BME280;74109;45.636;25.582;2024-03-06T00:42:21;94363.17;;;3.90;66.40
84024;BME280;74109;45.636;25.582;2024-03-06T00:44:48;94364.95;;;3.84;66.78
84024;BME280;74109;45.636;25.582;2024-03-06T00:47:15;94360.14;;;3.80;66.04
84024;BME280;74109;45.636;25.582;2024-03-06T00:49:41;94364.00;;;3.81;66.01
84024;BME280;74109;45.636;25.582;2024-03-06T00:52:08;94363.80;;;3.77;67.63
84024;BME280;74109;45.636;25.582;2024-03-06T00:54:35;94362.64;;;3.78;66.78
84024;BME280;74109;45.636;25.582;2024-03-06T00:57:02;94364.59;;;3.76;67.42
84024;BME280;74109;45.636;25.582;2024-03-06T00:59:29;94365.21;;;3.74;67.23
84024;BME280;74109;45.636;25.582;2024-03-06T01:01:56;94362.03;;;3.72;67.01
84024;BME280;74109;45.636;25.582;2024-03-06T01:04:23;94362.38;;;3.72;66.99
84024;BME280;74109;45.636;25.582;2024-03-06T01:06:50;94366.08;;;3.71;67.01
84024;BME280;74109;45.636;25.582;2024-03-06T01:09:18;94370.61;;;3.70;66.54
84024;BME280;74109;45.636;25.582;2024-03-06T01:11:45;94367.85;;;3.70;66.46
84024;BME280;74109;45.636;25.582;2024-03-06T01:14:14;94368.73;;;3.70;66.65
84024;BME280;74109;45.636;25.582;2024-03-06T01:16:41;94375.48;;;3.69;66.81
84024;BME280;74109;45.636;25.582;2024-03-06T01:19:08;94374.06;;;3.68;66.21
84024;BME280;74109;45.636;25.582;2024-03-06T01:21:35;94370.98;;;3.70;66.70
84024;BME280;74109;45.636;25.582;2024-03-06T01:24:01;94371.27;;;3.71;66.82
84024;BME280;74109;45.636;25.582;2024-03-06T01:26:28;94371.55;;;3.75;66.83
84024;BME280;74109;45.636;25.582;2024-03-06T01:28:55;94372.55;;;3.81;66.93
84024;BME280;74109;45.636;25.582;2024-03-06T01:31:22;94377.13;;;3.88;66.44
84024;BME280;74109;45.636;25.582;2024-03-06T01:33:49;94377.20;;;3.96;66.35
84024;BME280;74109;45.636;25.582;2024-03-06T01:36:16;94378.69;;;4.02;66.10
84024;BME280;74109;45.636;25.582;2024-03-06T01:38:42;94380.91;;;4.08;65.93
84024;BME280;74109;45.636;25.582;2024-03-06T01:41:14;94390.65;;;4.14;66.18
84024;BME280;74109;45.636;25.582;2024-03-06T01:43:41;94393.17;;;4.18;65.72
84024;BME280;74109;45.636;25.582;2024-03-06T01:46:07;94393.65;;;4.21;65.95
84024;BME280;74109;45.636;25.582;2024-03-06T01:48:35;94398.34;;;4.21;66.19
84024;BME280;74109;45.636;25.582;2024-03-06T01:51:03;94401.11;;;4.24;65.85
84024;BME280;74109;45.636;25.582;2024-03-06T01:53:32;94400.63;;;4.28;65.87
84024;BME280;74109;45.636;25.582;2024-03-06T01:56:00;94401.14;;;4.34;65.74
84024;BME280;74109;45.636;25.582;2024-03-06T01:58:28;94397.00;;;4.38;65.68
84024;BME280;74109;45.636;25.582;2024-03-06T02:00:55;94399.49;;;4.42;65.39
84024;BME280;74109;45.636;25.582;2024-03-06T02:03:22;94397.02;;;4.45;65.67
84024;BME280;74109;45.636;25.582;2024-03-06T02:05:50;94397.33;;;4.47;65.51
84024;BME280;74109;45.636;25.582;2024-03-06T02:08:18;94403.21;;;4.47;65.18
84024;BME280;74109;45.636;25.582;2024-03-06T02:10:45;94399.55;;;4.52;64.93
84024;BME280;74109;45.636;25.582;2024-03-06T02:13:13;94399.41;;;4.58;65.18
84024;BME280;74109;45.636;25.582;2024-03-06T02:15:41;94399.39;;;4.61;65.27
84024;BME280;74109;45.636;25.582;2024-03-06T02:18:08;94400.48;;;4.64;65.46
84024;BME280;74109;45.636;25.582;2024-03-06T02:20:38;94403.41;;;4.64;65.40
84024;BME280;74109;45.636;25.582;2024-03-06T02:23:05;94406.63;;;4.63;65.25
84024;BME280;74109;45.636;25.582;2024-03-06T02:25:33;94409.56;;;4.62;64.95
84024;BME280;74109;45.636;25.582;2024-03-06T02:28:00;94411.12;;;4.59;65.16
84024;BME280;74109;45.636;25.582;2024-03-06T02:30:27;94407.27;;;4.54;64.92
84024;BME280;74109;45.636;25.582;2024-03-06T02:32:54;94412.80;;;4.50;65.25
84024;BME280;74109;45.636;25.582;2024-03-06T02:35:21;94415.02;;;4.45;64.99
84024;BME280;74109;45.636;25.582;2024-03-06T02:37:50;94418.65;;;4.41;64.93
84024;BME280;74109;45.636;25.582;2024-03-06T02:40:18;94418.13;;;4.38;64.82
84024;BME280;74109;45.636;25.582;2024-03-06T02:42:54;94415.45;;;4.36;65.01
84024;BME280;74109;45.636;25.582;2024-03-06T02:45:21;94420.10;;;4.32;64.79
84024;BME280;74109;45.636;25.582;2024-03-06T02:47:47;94418.98;;;4.26;64.73
84024;BME280;74109;45.636;25.582;2024-03-06T02:50:14;94417.73;;;4.23;65.24
84024;BME280;74109;45.636;25.582;2024-03-06T02:52:41;94419.30;;;4.17;65.29
84024;BME280;74109;45.636;25.582;2024-03-06T02:55:09;94421.34;;;4.11;65.62
84024;BME280;74109;45.636;25.582;2024-03-06T02:57:36;94419.20;;;4.04;65.82
84024;BME280;74109;45.636;25.582;2024-03-06T03:00:03;94418.31;;;4.00;65.58
84024;BME280;74109;45.636;25.582;2024-03-06T03:02:31;94416.13;;;3.98;65.47
84024;BME280;74109;45.636;25.582;2024-03-06T03:04:58;94418.05;;;3.95;65.33
84024;BME280;74109;45.636;25.582;2024-03-06T03:07:25;94417.41;;;3.92;65.13
84024;BME280;74109;45.636;25.582;2024-03-06T03:09:52;94423.21;;;3.92;65.12
84024;BME280;74109;45.636;25.582;2024-03-06T03:12:19;94430.37;;;3.87;65.22
84024;BME280;74109;45.636;25.582;2024-03-06T03:14:45;94433.32;;;3.80;65.22
84024;BME280;74109;45.636;25.582;2024-03-06T03:17:13;94431.20;;;3.74;65.03
84024;BME280;74109;45.636;25.582;2024-03-06T03:19:41;94428.15;;;3.67;65.31
84024;BME280;74109;45.636;25.582;2024-03-06T03:22:08;94429.91;;;3.60;65.19
84024;BME280;74109;45.636;25.582;2024-03-06T03:24:35;94432.02;;;3.51;65.73
84024;BME280;74109;45.636;25.582;2024-03-06T03:27:03;94431.98;;;3.45;65.35
84024;BME280;74109;45.636;25.582;2024-03-06T03:29:30;94432.68;;;3.41;64.98
84024;BME280;74109;45.636;25.582;2024-03-06T03:31:57;94435.67;;;3.42;65.48
84024;BME280;74109;45.636;25.582;2024-03-06T03:34:23;94438.79;;;3.38;66.43
84024;BME280;74109;45.636;25.582;2024-03-06T03:36:50;94439.20;;;3.30;66.62
84024;BME280;74109;45.636;25.582;2024-03-06T03:39:17;94448.81;;;3.26;65.94
84024;BME280;74109;45.636;25.582;2024-03-06T03:41:45;94447.23;;;3.20;66.39
84024;BME280;74109;45.636;25.582;2024-03-06T03:44:18;94450.17;;;3.17;65.96
84024;BME280;74109;45.636;25.582;2024-03-06T03:46:45;94451.66;;;3.19;65.99
84024;BME280;74109;45.636;25.582;2024-03-06T03:49:12;94453.17;;;3.17;66.51
84024;BME280;74109;45.636;25.582;2024-03-06T03:51:40;94455.70;;;3.11;66.54
84024;BME280;74109;45.636;25.582;2024-03-06T03:54:07;94462.02;;;3.04;66.61
84024;BME280;74109;45.636;25.582;2024-03-06T03:56:34;94466.35;;;2.97;67.28
84024;BME280;74109;45.636;25.582;2024-03-06T03:59:01;94465.00;;;2.87;68.81
84024;BME280;74109;45.636;25.582;2024-03-06T04:01:28;94460.71;;;2.78;68.26
84024;BME280;74109;45.636;25.582;2024-03-06T04:03:55;94464.25;;;2.78;67.29
84024;BME280;74109;45.636;25.582;2024-03-06T04:06:22;94466.89;;;2.84;67.08
84024;BME280;74109;45.636;25.582;2024-03-06T04:08:48;94472.09;;;2.90;67.33
84024;BME280;74109;45.636;25.582;2024-03-06T04:11:15;94470.66;;;2.94;67.48
84024;BME280;74109;45.636;25.582;2024-03-06T04:13:43;94473.48;;;2.97;66.76
84024;BME280;74109;45.636;25.582;2024-03-06T04:16:10;94473.22;;;3.00;66.75
84024;BME280;74109;45.636;25.582;2024-03-06T04:18:37;94473.38;;;3.00;66.74
84024;BME280;74109;45.636;25.582;2024-03-06T04:21:04;94478.70;;;2.99;66.68
84024;BME280;74109;45.636;25.582;2024-03-06T04:23:32;94477.38;;;2.96;66.82
84024;BME280;74109;45.636;25.582;2024-03-06T04:25:59;94477.31;;;2.94;66.92
84024;BME280;74109;45.636;25.582;2024-03-06T04:28:26;94474.42;;;2.91;66.41
84024;BME280;74109;45.636;25.582;2024-03-06T04:30:53;94476.17;;;2.87;67.07
84024;BME280;74109;45.636;25.582;2024-03-06T04:33:20;94478.27;;;2.83;66.77
84024;BME280;74109;45.636;25.582;2024-03-06T04:35:47;94477.95;;;2.77;66.44
84024;BME280;74109;45.636;25.582;2024-03-06T04:38:14;94475.13;;;2.76;66.72
84024;BME280;74109;45.636;25.582;2024-03-06T04:40:41;94476.02;;;2.80;66.86
84024;BME280;74109;45.636;25.582;2024-03-06T04:43:08;94470.63;;;2.84;67.15
84024;BME280;74109;45.636;25.582;2024-03-06T04:45:35;94470.56;;;2.90;67.11
84024;BME280;74109;45.636;25.582;2024-03-06T04:48:01;94475.66;;;2.94;67.24
84024;BME280;74109;45.636;25.582;2024-03-06T04:50:28;94478.05;;;2.96;67.07
84024;BME280;74109;45.636;25.582;2024-03-06T04:52:55;94479.98;;;2.96;66.68
84024;BME280;74109;45.636;25.582;2024-03-06T04:55:22;94479.73;;;2.95;66.77
84024;BME280;74109;45.636;25.582;2024-03-06T04:57:52;94480.27;;;2.93;67.05
84024;BME280;74109;45.636;25.582;2024-03-06T05:00:22;94484.59;;;2.90;67.24
84024;BME280;74109;45.636;25.582;2024-03-06T05:02:49;94485.65;;;2.88;67.96
84024;BME280;74109;45.636;25.582;2024-03-06T05:05:34;94487.67;;;2.86;67.25
84024;BME280;74109;45.636;25.582;2024-03-06T05:08:19;94493.33;;;2.87;67.47
84024;BME280;74109;45.636;25.582;2024-03-06T05:11:05;94498.19;;;2.91;66.80
84024;BME280;74109;45.636;25.582;2024-03-06T05:13:51;94502.55;;;3.00;67.01
84024;BME280;74109;45.636;25.582;2024-03-06T05:16:35;94503.64;;;3.11;66.93
84024;BME280;74109;45.636;25.582;2024-03-06T05:19:20;94504.31;;;3.23;67.15
84024;BME280;74109;45.636;25.582;2024-03-06T05:22:05;94510.02;;;3.33;67.38
84024;BME280;74109;45.636;25.582;2024-03-06T05:24:50;94513.72;;;3.43;67.38
84024;BME280;74109;45.636;25.582;2024-03-06T05:27:35;94517.39;;;3.49;68.51
84024;BME280;74109;45.636;25.582;2024-03-06T05:30:20;94520.23;;;3.56;67.93
84024;BME280;74109;45.636;25.582;2024-03-06T05:33:05;94522.63;;;3.67;67.63
84024;BME280;74109;45.636;25.582;2024-03-06T05:35:50;94520.45;;;3.83;67.09
84024;BME280;74109;45.636;25.582;2024-03-06T05:38:35;94524.45;;;3.99;67.10
84024;BME280;74109;45.636;25.582;2024-03-06T05:41:21;94525.98;;;4.11;66.95
84024;BME280;74109;45.636;25.582;2024-03-06T05:44:07;94526.78;;;4.22;66.97
84024;BME280;74109;45.636;25.582;2024-03-06T05:46:53;94529.88;;;4.27;67.16
84024;BME280;74109;45.636;25.582;2024-03-06T05:49:41;94535.31;;;4.32;66.84
84024;BME280;74109;45.636;25.582;2024-03-06T05:52:27;94537.27;;;4.37;66.72
84024;BME280;74109;45.636;25.582;2024-03-06T05:55:14;94533.36;;;4.41;66.89
84024;BME280;74109;45.636;25.582;2024-03-06T05:58:15;94537.23;;;4.49;66.48
84024;BME280;74109;45.636;25.582;2024-03-06T06:00:48;94537.23;;;4.59;66.53
84024;BME280;74109;45.636;25.582;2024-03-06T06:03:16;94537.75;;;4.65;66.30
84024;BME280;74109;45.636;25.582;2024-03-06T06:05:44;94542.02;;;4.75;66.21
84024;BME280;74109;45.636;25.582;2024-03-06T06:08:11;94543.54;;;4.82;65.80
84024;BME280;74109;45.636;25.582;2024-03-06T06:10:38;94542.67;;;4.89;65.54
84024;BME280;74109;45.636;25.582;2024-03-06T06:13:05;94544.49;;;4.96;65.33
84024;BME280;74109;45.636;25.582;2024-03-06T06:15:37;94541.74;;;5.03;65.20
84024;BME280;74109;45.636;25.582;2024-03-06T06:18:04;94538.66;;;5.09;64.94
84024;BME280;74109;45.636;25.582;2024-03-06T06:20:36;94540.84;;;5.12;64.60
84024;BME280;74109;45.636;25.582;2024-03-06T06:23:04;94545.02;;;5.15;64.44
84024;BME280;74109;45.636;25.582;2024-03-06T06:25:34;94546.13;;;5.13;64.21
84024;BME280;74109;45.636;25.582;2024-03-06T06:28:02;94546.67;;;5.13;64.45
84024;BME280;74109;45.636;25.582;2024-03-06T06:30:30;94551.02;;;5.14;64.37
84024;BME280;74109;45.636;25.582;2024-03-06T06:33:03;94547.87;;;5.15;64.32
84024;BME280;74109;45.636;25.582;2024-03-06T06:35:31;94547.29;;;5.23;64.23
84024;BME280;74109;45.636;25.582;2024-03-06T06:38:01;94543.76;;;5.33;64.17
84024;BME280;74109;45.636;25.582;2024-03-06T06:40:33;94544.02;;;5.44;63.76
84024;BME280;74109;45.636;25.582;2024-03-06T06:43:00;94543.77;;;5.50;63.43
84024;BME280;74109;45.636;25.582;2024-03-06T06:45:31;94546.21;;;5.54;63.08
84024;BME280;74109;45.636;25.582;2024-03-06T06:47:59;94551.08;;;5.59;63.08
84024;BME280;74109;45.636;25.582;2024-03-06T06:50:41;94549.95;;;5.65;62.72
84024;BME280;74109;45.636;25.582;2024-03-06T06:53:08;94559.02;;;5.75;62.49
84024;BME280;74109;45.636;25.582;2024-03-06T06:55:36;94557.66;;;5.81;62.08
84024;BME280;74109;45.636;25.582;2024-03-06T06:58:04;94559.22;;;5.84;61.76
84024;BME280;74109;45.636;25.582;2024-03-06T07:00:34;94558.26;;;5.87;61.27
84024;BME280;74109;45.636;25.582;2024-03-06T07:03:13;94557.90;;;5.87;61.22
84024;BME280;74109;45.636;25.582;2024-03-06T07:05:40;94559.95;;;5.93;61.23
84024;BME280;74109;45.636;25.582;2024-03-06T07:08:10;94561.60;;;5.98;60.80
84024;BME280;74109;45.636;25.582;2024-03-06T07:10:37;94561.48;;;6.05;60.90
84024;BME280;74109;45.636;25.582;2024-03-06T07:13:11;94563.35;;;6.14;60.58
84024;BME280;74109;45.636;25.582;2024-03-06T07:15:38;94563.84;;;6.22;60.33
84024;BME280;74109;45.636;25.582;2024-03-06T07:18:07;94561.95;;;6.30;59.72
84024;BME280;74109;45.636;25.582;2024-03-06T07:20:40;94561.16;;;6.47;59.72
84024;BME280;74109;45.636;25.582;2024-03-06T07:23:19;94564.02;;;6.90;58.55
84024;BME280;74109;45.636;25.582;2024-03-06T07:26:05;94565.52;;;7.55;56.86
84024;BME280;74109;45.636;25.582;2024-03-06T07:28:37;94560.30;;;8.43;54.61
84024;BME280;74109;45.636;25.582;2024-03-06T07:31:15;94558.10;;;9.60;51.77
84024;BME280;74109;45.636;25.582;2024-03-06T07:33:45;94556.52;;;10.63;48.82
84024;BME280;74109;45.636;25.582;2024-03-06T07:36:12;94560.80;;;11.51;46.43
84024;BME280;74109;45.636;25.582;2024-03-06T07:38:39;94563.55;;;12.30;44.48
84024;BME280;74109;45.636;25.582;2024-03-06T07:41:06;94557.05;;;13.11;41.82
84024;BME280;74109;45.636;25.582;2024-03-06T07:43:34;94556.89;;;13.73;39.77
84024;BME280;74109;45.636;25.582;2024-03-06T07:46:01;94556.81;;;14.06;37.71
84024;BME280;74109;45.636;25.582;2024-03-06T07:48:32;94557.07;;;14.34;39.44
84024;BME280;74109;45.636;25.582;2024-03-06T07:51:00;94553.56;;;14.22;38.83
84024;BME280;74109;45.636;25.582;2024-03-06T07:53:31;94550.85;;;14.59;39.46
84024;BME280;74109;45.636;25.582;2024-03-06T07:56:00;94549.66;;;14.92;37.01
84024;BME280;74109;45.636;25.582;2024-03-06T07:58:28;94548.29;;;15.40;36.20
84024;BME280;74109;45.636;25.582;2024-03-06T08:00:57;94549.55;;;15.81;35.87
84024;BME280;74109;45.636;25.582;2024-03-06T08:03:39;94550.23;;;16.20;34.78
84024;BME280;74109;45.636;25.582;2024-03-06T08:06:22;94548.07;;;16.36;34.22
84024;BME280;74109;45.636;25.582;2024-03-06T08:08:52;94550.60;;;16.49;34.11
84024;BME280;74109;45.636;25.582;2024-03-06T08:11:21;94551.94;;;16.59;33.94
84024;BME280;74109;45.636;25.582;2024-03-06T08:13:57;94547.67;;;16.72;34.60
84024;BME280;74109;45.636;25.582;2024-03-06T08:16:24;94549.89;;;16.69;34.40
84024;BME280;74109;45.636;25.582;2024-03-06T08:18:51;94548.42;;;16.77;33.59
84024;BME280;74109;45.636;25.582;2024-03-06T08:21:28;94553.09;;;16.80;33.49
84024;BME280;74109;45.636;25.582;2024-03-06T08:23:55;94547.99;;;16.75;33.44
84024;BME280;74109;45.636;25.582;2024-03-06T08:26:22;94546.17;;;16.80;33.60
84024;BME280;74109;45.636;25.582;2024-03-06T08:28:51;94546.71;;;16.88;33.84
84024;BME280;74109;45.636;25.582;2024-03-06T08:31:19;94550.24;;;16.78;33.48
84024;BME280;74109;45.636;25.582;2024-03-06T08:33:50;94545.21;;;16.87;33.70
84024;BME280;74109;45.636;25.582;2024-03-06T08:36:21;94546.25;;;16.78;33.21
84024;BME280;74109;45.636;25.582;2024-03-06T08:38:48;94551.02;;;16.69;33.76
84024;BME280;74109;45.636;25.582;2024-03-06T08:41:19;94551.05;;;16.53;33.68
84024;BME280;74109;45.636;25.582;2024-03-06T08:43:48;94547.48;;;16.44;33.62
84024;BME280;74109;45.636;25.582;2024-03-06T08:46:16;94549.57;;;16.24;33.44
84024;BME280;74109;45.636;25.582;2024-03-06T08:48:45;94544.95;;;16.29;33.89
84024;BME280;74109;45.636;25.582;2024-03-06T08:51:12;94543.96;;;16.48;33.85
84024;BME280;74109;45.636;25.582;2024-03-06T08:53:43;94539.36;;;16.57;33.22
84024;BME280;74109;45.636;25.582;2024-03-06T08:56:17;94545.14;;;16.61;33.57
84024;BME280;74109;45.636;25.582;2024-03-06T08:58:47;94541.50;;;16.63;33.22
84024;BME280;74109;45.636;25.582;2024-03-06T09:04:23;94538.48;;;16.72;33.14
84024;BME280;74109;45.636;25.582;2024-03-06T09:06:54;94534.84;;;16.87;32.78
84024;BME280;74109;45.636;25.582;2024-03-06T09:09:32;94535.31;;;17.13;33.05
84024;BME280;74109;45.636;25.582;2024-03-06T09:12:04;94532.29;;;17.15;32.69
84024;BME280;74109;45.636;25.582;2024-03-06T09:14:34;94536.02;;;17.07;32.86
84024;BME280;74109;45.636;25.582;2024-03-06T09:17:03;94536.61;;;16.62;33.29
84024;BME280;74109;45.636;25.582;2024-03-06T09:19:38;94538.67;;;16.02;34.17
84024;BME280;74109;45.636;25.582;2024-03-06T09:22:12;94537.02;;;15.58;35.05
84024;BME280;74109;45.636;25.582;2024-03-06T09:24:44;94536.00;;;15.53;35.26
84024;BME280;74109;45.636;25.582;2024-03-06T09:27:13;94530.44;;;15.62;35.41
84024;BME280;74109;45.636;25.582;2024-03-06T09:29:40;94529.87;;;15.80;35.35
84024;BME280;74109;45.636;25.582;2024-03-06T09:32:12;94526.56;;;15.91;35.09
84024;BME280;74109;45.636;25.582;2024-03-06T09:34:48;94522.56;;;15.99;35.20
84024;BME280;74109;45.636;25.582;2024-03-06T09:37:16;94521.35;;;16.33;35.41
84024;BME280;74109;45.636;25.582;2024-03-06T09:39:45;94516.96;;;16.66;34.85
84024;BME280;74109;45.636;25.582;2024-03-06T09:42:15;94510.97;;;16.79;33.98
84024;BME280;74109;45.636;25.582;2024-03-06T09:44:43;94508.90;;;16.88;34.32
84024;BME280;74109;45.636;25.582;2024-03-06T09:47:21;94507.94;;;16.87;34.06
84024;BME280;74109;45.636;25.582;2024-03-06T09:49:54;94508.21;;;16.78;34.32
84024;BME280;74109;45.636;25.582;2024-03-06T09:52:25;94507.14;;;16.82;34.50
84024;BME280;74109;45.636;25.582;2024-03-06T09:54:58;94506.02;;;16.80;34.37
84024;BME280;74109;45.636;25.582;2024-03-06T09:57:38;94504.29;;;16.61;34.47
84024;BME280;74109;45.636;25.582;2024-03-06T10:00:08;94505.55;;;16.55;34.72
84024;BME280;74109;45.636;25.582;2024-03-06T10:02:54;94510.23;;;16.35;35.01
84024;BME280;74109;45.636;25.582;2024-03-06T10:05:25;94508.36;;;16.25;35.57
84024;BME280;74109;45.636;25.582;2024-03-06T10:07:54;94507.84;;;16.34;35.46
84024;BME280;74109;45.636;25.582;2024-03-06T10:10:26;94506.63;;;16.28;35.33
84024;BME280;74109;45.636;25.582;2024-03-06T10:12:58;94506.27;;;16.30;35.38
84024;BME280;74109;45.636;25.582;2024-03-06T10:15:33;94504.52;;;16.45;35.41
84024;BME280;74109;45.636;25.582;2024-03-06T10:18:44;94499.91;;;16.57;35.12
84024;BME280;74109;45.636;25.582;2024-03-06T10:22:21;94498.52;;;16.62;34.87
84024;BME280;74109;45.636;25.582;2024-03-06T10:31:05;94491.84;;;16.12;35.13
84024;BME280;74109;45.636;25.582;2024-03-06T10:33:51;94488.91;;;16.05;35.52
84024;BME280;74109;45.636;25.582;2024-03-06T10:36:26;94486.42;;;16.05;35.39
84024;BME280;74109;45.636;25.582;2024-03-06T10:39:01;94487.95;;;16.01;35.39
84024;BME280;74109;45.636;25.582;2024-03-06T10:42:02;94484.97;;;16.00;35.30
84024;BME280;74109;45.636;25.582;2024-03-06T10:48:04;94479.98;;;15.96;35.29
84024;BME280;74109;45.636;25.582;2024-03-06T10:51:17;94476.44;;;16.01;35.31
84024;BME280;74109;45.636;25.582;2024-03-06T10:53:52;94471.50;;;16.13;35.27
84024;BME280;74109;45.636;25.582;2024-03-06T10:56:30;94466.89;;;16.37;35.11
84024;BME280;74109;45.636;25.582;2024-03-06T10:58:57;94464.54;;;16.64;34.53
84024;BME280;74109;45.636;25.582;2024-03-06T11:01:45;94460.92;;;16.88;34.38
84024;BME280;74109;45.636;25.582;2024-03-06T11:04:16;94454.14;;;17.13;33.70
84024;BME280;74109;45.636;25.582;2024-03-06T11:06:47;94455.11;;;17.35;33.17
84024;BME280;74109;45.636;25.582;2024-03-06T11:09:26;94451.35;;;17.31;32.79
84024;BME280;74109;45.636;25.582;2024-03-06T11:12:08;94450.46;;;17.07;33.01
84024;BME280;74109;45.636;25.582;2024-03-06T11:14:50;94450.70;;;16.85;33.17
84024;BME280;74109;45.636;25.582;2024-03-06T11:17:26;94448.75;;;16.75;33.45
84024;BME280;74109;45.636;25.582;2024-03-06T11:28:36;94441.77;;;16.46;33.68
84024;BME280;74109;45.636;25.582;2024-03-06T11:31:25;94438.91;;;16.45;33.79
84024;BME280;74109;45.636;25.582;2024-03-06T11:34:06;94433.73;;;16.57;33.85
84024;BME280;74109;45.636;25.582;2024-03-06T11:36:46;94434.48;;;16.62;33.46
84024;BME280;74109;45.636;25.582;2024-03-06T11:39:19;94435.95;;;16.56;33.65
84024;BME280;74109;45.636;25.582;2024-03-06T11:41:51;94429.59;;;16.52;33.64
84024;BME280;74109;45.636;25.582;2024-03-06T11:44:26;94429.60;;;16.37;33.59
84024;BME280;74109;45.636;25.582;2024-03-06T11:49:31;94426.43;;;16.35;33.72
84024;BME280;74109;45.636;25.582;2024-03-06T11:52:05;94425.70;;;16.24;33.69
84024;BME280;74109;45.636;25.582;2024-03-06T11:54:34;94421.92;;;16.16;33.65
84024;BME280;74109;45.636;25.582;2024-03-06T11:57:12;94419.63;;;16.10;34.16
84024;BME280;74109;45.636;25.582;2024-03-06T11:59:42;94420.95;;;16.12;33.98
84024;BME280;74109;45.636;25.582;2024-03-06T12:02:10;94422.72;;;16.13;33.74
84024;BME280;74109;45.636;25.582;2024-03-06T12:04:38;94420.26;;;16.15;33.81
84024;BME280;74109;45.636;25.582;2024-03-06T12:07:05;94421.66;;;16.27;34.07
84024;BME280;74109;45.636;25.582;2024-03-06T12:09:36;94422.70;;;16.45;33.29
84024;BME280;74109;45.636;25.582;2024-03-06T12:12:09;94420.75;;;16.52;32.83
84024;BME280;74109;45.636;25.582;2024-03-06T12:14:36;94420.05;;;16.36;32.66
84024;BME280;74109;45.636;25.582;2024-03-06T12:17:05;94414.95;;;16.22;32.94
84024;BME280;74109;45.636;25.582;2024-03-06T12:19:35;94413.99;;;16.24;32.80
84024;BME280;74109;45.636;25.582;2024-03-06T12:22:05;94410.48;;;16.24;32.14
84024;BME280;74109;45.636;25.582;2024-03-06T12:24:35;94410.02;;;16.03;32.36
84024;BME280;74109;45.636;25.582;2024-03-06T12:27:04;94413.05;;;16.09;32.65
84024;BME280;74109;45.636;25.582;2024-03-06T12:29:32;94407.19;;;16.23;32.31
84024;BME280;74109;45.636;25.582;2024-03-06T12:32:00;94410.71;;;16.31;31.71
84024;BME280;74109;45.636;25.582;2024-03-06T12:34:28;94409.98;;;16.14;30.91
84024;BME280;74109;45.636;25.582;2024-03-06T12:36:55;94406.92;;;15.94;31.70
84024;BME280;74109;45.636;25.582;2024-03-06T12:39:23;94409.45;;;15.81;31.68
84024;BME280;74109;45.636;25.582;2024-03-06T12:41:57;94411.65;;;15.72;31.41
84024;BME280;74109;45.636;25.582;2024-03-06T12:44:23;94410.88;;;15.54;31.14
84024;BME280;74109;45.636;25.582;2024-03-06T12:46:50;94410.23;;;15.50;31.34
84024;BME280;74109;45.636;25.582;2024-03-06T12:49:17;94409.69;;;15.36;30.97
84024;BME280;74109;45.636;25.582;2024-03-06T12:51:45;94412.40;;;15.18;31.34
84024;BME280;74109;45.636;25.582;2024-03-06T12:54:12;94413.89;;;15.04;31.69
84024;BME280;74109;45.636;25.582;2024-03-06T12:56:39;94412.47;;;15.08;31.53
84024;BME280;74109;45.636;25.582;2024-03-06T12:59:08;94411.56;;;15.14;31.88
84024;BME280;74109;45.636;25.582;2024-03-06T13:01:36;94410.16;;;15.06;32.06
84024;BME280;74109;45.636;25.582;2024-03-06T13:04:02;94407.17;;;14.92;32.23
84024;BME280;74109;45.636;25.582;2024-03-06T13:06:33;94410.10;;;14.84;31.91
84024;BME280;74109;45.636;25.582;2024-03-06T13:09:04;94405.17;;;14.80;31.76
84024;BME280;74109;45.636;25.582;2024-03-06T13:11:31;94405.17;;;14.77;31.73
84024;BME280;74109;45.636;25.582;2024-03-06T13:14:01;94402.36;;;14.75;32.09
84024;BME280;74109;45.636;25.582;2024-03-06T13:16:28;94400.69;;;14.81;31.78
84024;BME280;74109;45.636;25.582;2024-03-06T13:18:55;94396.48;;;14.79;32.08
84024;BME280;74109;45.636;25.582;2024-03-06T13:21:23;94397.81;;;14.77;32.09
84024;BME280;74109;45.636;25.582;2024-03-06T13:23:50;94392.36;;;14.71;32.12
84024;BME280;74109;45.636;25.582;2024-03-06T13:26:17;94393.38;;;14.68;32.02
84024;BME280;74109;45.636;25.582;2024-03-06T13:28:44;94393.11;;;14.74;31.98
84024;BME280;74109;45.636;25.582;2024-03-06T13:31:12;94394.66;;;14.76;31.73
84024;BME280;74109;45.636;25.582;2024-03-06T13:33:39;94398.18;;;14.77;31.78
84024;BME280;74109;45.636;25.582;2024-03-06T13:36:07;94396.52;;;14.88;31.65
84024;BME280;74109;45.636;25.582;2024-03-06T13:38:35;94396.45;;;15.01;31.54